createdAt,value
2018-03-27T00:00:31.636Z,21.50
2018-03-27T00:02:59.141Z,22.95
2018-03-27T00:05:26.650Z,26.35
2018-03-27T00:07:54.159Z,24.45
2018-03-27T00:10:21.665Z,22.15
2018-03-27T00:12:49.168Z,22.02
2018-03-27T00:15:16.682Z,22.98
2018-03-27T00:17:44.216Z,24.60
2018-03-27T00:20:12.147Z,21.02
2018-03-27T00:22:39.650Z,22.35
2018-03-27T00:25:07.156Z,22.83
2018-03-27T00:27:46.432Z,26.87
2018-03-27T00:30:26.112Z,23.62
2018-03-27T00:33:05.506Z,21.33
2018-03-27T00:35:45.088Z,24.52
2018-03-27T00:38:24.423Z,22.27
2018-03-27T00:40:51.439Z,22.60
2018-03-27T00:43:18.934Z,23.17
2018-03-27T00:45:46.438Z,23.80
2018-03-27T00:48:14.339Z,21.48
2018-03-27T00:50:41.840Z,22.40
2018-03-27T00:53:09.351Z,22.90
2018-03-27T00:55:36.865Z,22.62
2018-03-27T00:58:04.367Z,21.00
2018-03-27T01:00:31.867Z,23.20
2018-03-27T01:02:59.362Z,26.75
2018-03-27T01:05:26.858Z,23.45
2018-03-27T01:07:54.361Z,23.42
2018-03-27T01:10:22.255Z,23.30
2018-03-27T01:12:49.771Z,23.15
2018-03-27T01:15:17.676Z,24.65
2018-03-27T01:17:46.422Z,23.70
2018-03-27T01:20:13.943Z,21.67
2018-03-27T01:22:41.460Z,23.67
2018-03-27T01:25:09.532Z,23.67
2018-03-27T01:27:38.925Z,23.98
2018-03-27T01:30:06.476Z,25.15
2018-03-27T01:32:33.989Z,23.35
2018-03-27T01:35:01.488Z,29.83
2018-03-27T01:37:28.992Z,24.55
2018-03-27T01:39:56.497Z,27.00
2018-03-27T01:42:24.015Z,25.77
2018-03-27T01:44:51.514Z,26.55
2018-03-27T01:47:19.027Z,24.10
2018-03-27T01:49:46.511Z,31.10
2018-03-27T01:52:14.028Z,26.05
2018-03-27T01:54:41.527Z,28.73
2018-03-27T01:57:09.057Z,27.50
2018-03-27T01:59:36.593Z,28.73
2018-03-27T02:02:04.108Z,27.15
2018-03-27T02:04:31.767Z,27.58
2018-03-27T02:06:59.263Z,29.33
2018-03-27T02:09:26.761Z,26.70
2018-03-27T02:12:00.089Z,26.83
2018-03-27T02:14:33.589Z,24.83
2018-03-27T02:17:07.307Z,26.40
2018-03-27T02:19:40.976Z,27.08
2018-03-27T02:22:08.487Z,28.70
2018-03-27T02:24:37.965Z,28.87
2018-03-27T02:27:05.859Z,25.77
2018-03-27T02:29:33.361Z,28.25
2018-03-27T02:32:00.853Z,27.13
2018-03-27T02:34:28.372Z,28.52
2018-03-27T02:36:55.871Z,28.00
2018-03-27T02:39:23.770Z,29.10
2018-03-27T02:41:51.276Z,28.02
2018-03-27T02:44:19.180Z,33.47
2018-03-27T02:46:46.675Z,30.12
2018-03-27T02:49:14.184Z,29.63
2018-03-27T02:51:41.697Z,30.23
2018-03-27T02:54:09.199Z,31.77
2018-03-27T02:56:36.720Z,31.67
2018-03-27T02:59:04.217Z,29.65
2018-03-27T03:01:31.782Z,33.90
2018-03-27T03:03:59.275Z,34.63
2018-03-27T03:06:26.778Z,31.17
2018-03-27T03:08:54.708Z,29.95
2018-03-27T03:11:22.215Z,30.90
2018-03-27T03:13:49.727Z,32.22
2018-03-27T03:16:17.239Z,31.45
2018-03-27T03:18:44.736Z,30.15
2018-03-27T03:21:12.234Z,32.83
2018-03-27T03:23:40.167Z,35.65
2018-03-27T03:26:07.668Z,35.13
2018-03-27T03:28:35.185Z,31.70
2018-03-27T03:31:02.693Z,29.73
2018-03-27T03:33:30.200Z,32.55
2018-03-27T03:35:57.714Z,35.25
2018-03-27T03:38:25.220Z,34.50
2018-03-27T03:40:52.731Z,33.53
2018-03-27T03:43:20.238Z,34.35
2018-03-27T03:45:47.744Z,33.58
2018-03-27T03:48:15.266Z,38.58
2018-03-27T03:50:43.216Z,36.15
2018-03-27T03:53:10.720Z,36.53
2018-03-27T03:55:38.214Z,30.62
2018-03-27T03:58:05.714Z,35.30
2018-03-27T04:00:33.653Z,32.20
2018-03-27T04:03:01.228Z,33.92
2018-03-27T04:05:28.775Z,34.85
2018-03-27T04:07:56.291Z,32.53
2018-03-27T04:10:23.827Z,36.15
2018-03-27T04:12:51.369Z,35.25
2018-03-27T04:15:19.360Z,38.22
2018-03-27T04:17:46.895Z,42.58
2018-03-27T04:20:14.509Z,36.35
2018-03-27T04:22:42.072Z,34.53
2018-03-27T04:25:09.574Z,40.85
2018-03-27T04:27:37.476Z,38.85
2018-03-27T04:30:05.003Z,38.20
2018-03-27T04:32:32.536Z,38.90
2018-03-27T04:35:00.028Z,38.38
2018-03-27T04:37:27.523Z,34.97
2018-03-27T04:39:55.020Z,33.80
2018-03-27T04:42:22.546Z,36.60
2018-03-27T04:44:50.037Z,40.08
2018-03-27T04:47:17.549Z,36.65
2018-03-27T04:49:45.065Z,36.63
2018-03-27T04:52:12.936Z,41.28
2018-03-27T04:54:40.441Z,36.58
2018-03-27T04:57:07.970Z,37.83
2018-03-27T04:59:35.555Z,39.92
2018-03-27T05:02:03.051Z,43.92
2018-03-27T05:04:30.954Z,40.50
2018-03-27T05:06:58.461Z,39.72
2018-03-27T05:09:25.967Z,43.17
2018-03-27T05:11:53.471Z,37.30
2018-03-27T05:14:20.993Z,36.45
2018-03-27T05:16:48.498Z,42.03
2018-03-27T05:19:16.009Z,40.80
2018-03-27T05:21:43.527Z,39.75
2018-03-27T05:24:11.422Z,41.70
2018-03-27T05:26:38.926Z,39.33
2018-03-27T05:29:06.486Z,40.75
2018-03-27T05:31:33.994Z,39.45
2018-03-27T05:34:01.523Z,42.30
2018-03-27T05:36:29.415Z,42.38
2018-03-27T05:38:56.938Z,42.97
2018-03-27T05:41:24.836Z,38.88
2018-03-27T05:43:52.337Z,41.40
2018-03-27T05:46:19.838Z,38.90
2018-03-27T05:48:47.726Z,37.85
2018-03-27T05:51:15.213Z,44.17
2018-03-27T05:53:42.715Z,47.90
2018-03-27T05:56:10.615Z,44.92
2018-03-27T05:58:38.129Z,43.28
2018-03-27T06:01:06.031Z,46.37
2018-03-27T06:03:33.533Z,38.88
2018-03-27T06:06:01.051Z,38.35
2018-03-27T06:08:28.556Z,45.60
2018-03-27T06:10:56.071Z,44.75
2018-03-27T06:13:23.579Z,41.70
2018-03-27T06:15:51.475Z,41.13
2018-03-27T06:18:18.988Z,44.35
2018-03-27T06:20:46.496Z,45.45
2018-03-27T06:23:14.009Z,41.88
2018-03-27T06:25:41.893Z,41.83
2018-03-27T06:28:09.805Z,39.70
2018-03-27T06:30:37.304Z,41.10
2018-03-27T06:33:05.196Z,37.97
2018-03-27T06:35:32.728Z,39.17
2018-03-27T06:38:00.623Z,38.10
2018-03-27T06:40:28.128Z,41.88
2018-03-27T06:42:55.642Z,37.80
2018-03-27T06:45:23.172Z,38.42
2018-03-27T06:47:51.094Z,37.92
2018-03-27T06:50:18.594Z,37.88
2018-03-27T06:52:46.575Z,37.67
2018-03-27T06:55:14.139Z,39.67
2018-03-27T06:57:41.656Z,37.72
2018-03-27T07:00:09.196Z,34.67
2018-03-27T07:02:36.700Z,36.38
2018-03-27T07:05:04.265Z,37.70
2018-03-27T07:07:31.823Z,36.92
2018-03-27T07:09:59.342Z,37.47
2018-03-27T07:12:26.931Z,33.97
2018-03-27T07:14:54.929Z,35.22
2018-03-27T07:17:22.478Z,35.60
2018-03-27T07:19:50.375Z,33.83
2018-03-27T07:22:18.023Z,34.97
2018-03-27T07:24:45.593Z,31.83
2018-03-27T07:27:13.184Z,32.20
2018-03-27T07:29:40.691Z,21.55
2018-03-27T07:32:08.292Z,17.77
2018-03-27T07:34:36.016Z,31.40
2018-03-27T07:37:03.539Z,30.95
2018-03-27T07:39:31.435Z,35.45
2018-03-27T07:41:58.947Z,35.05
2018-03-27T07:44:26.439Z,41.50
2018-03-27T07:46:53.937Z,37.03
2018-03-27T07:49:21.450Z,35.67
2018-03-27T07:51:49.341Z,33.03
2018-03-27T07:54:16.855Z,38.17
2018-03-27T07:56:44.342Z,42.70
2018-03-27T07:59:11.867Z,36.07
2018-03-27T08:01:39.361Z,37.97
2018-03-27T08:04:06.855Z,32.87
2018-03-27T08:06:34.356Z,40.63
2018-03-27T08:09:02.256Z,32.80
2018-03-27T08:11:29.786Z,31.23
2018-03-27T08:13:57.670Z,25.73
2018-03-27T08:16:25.162Z,33.10
2018-03-27T08:18:52.659Z,25.07
2018-03-27T08:21:20.563Z,32.93
2018-03-27T08:23:48.042Z,30.63
2018-03-27T08:26:15.532Z,32.53
2018-03-27T08:28:43.431Z,34.20
2018-03-27T08:31:10.927Z,32.17
2018-03-27T08:33:38.436Z,33.00
2018-03-27T08:36:05.931Z,40.20
2018-03-27T08:38:33.410Z,34.73
2018-03-27T08:41:00.913Z,37.33
2018-03-27T08:43:28.451Z,32.87
2018-03-27T08:46:06.156Z,40.47
2018-03-27T08:48:34.067Z,46.87
2018-03-27T08:51:01.581Z,46.30
2018-03-27T08:53:32.365Z,43.20
2018-03-27T08:56:00.700Z,33.53
2018-03-27T08:58:28.198Z,35.20
2018-03-27T09:00:55.687Z,39.73
2018-03-27T09:03:23.195Z,39.57
2018-03-27T09:05:50.690Z,40.70
2018-03-27T09:08:18.191Z,45.03
2018-03-27T09:10:45.679Z,36.67
2018-03-27T09:13:13.188Z,30.03
2018-03-27T09:15:41.093Z,25.73
2018-03-27T09:18:10.447Z,45.20
2018-03-27T09:20:38.358Z,48.83
2018-03-27T09:23:05.863Z,48.97
2018-03-27T09:25:33.403Z,52.60
2018-03-27T09:28:00.899Z,52.07
2018-03-27T09:30:29.778Z,49.93
2018-03-27T09:32:57.663Z,51.03
2018-03-27T09:35:25.187Z,39.60
2018-03-27T09:37:54.931Z,51.63
2018-03-27T09:40:22.430Z,48.80
2018-03-27T09:42:50.572Z,52.10
2018-03-27T09:45:18.076Z,56.63
2018-03-27T09:47:45.559Z,53.27
2018-03-27T09:50:13.451Z,54.83
2018-03-27T09:52:40.943Z,55.13
2018-03-27T09:55:08.453Z,56.63
2018-03-27T09:57:35.984Z,59.60
2018-03-27T10:00:03.470Z,52.30
2018-03-27T10:02:30.979Z,55.27
2018-03-27T10:04:58.479Z,61.80
2018-03-27T10:07:25.990Z,44.70
2018-03-27T10:09:54.625Z,59.00
2018-03-27T10:12:23.193Z,61.63
2018-03-27T10:14:52.145Z,67.23
2018-03-27T10:17:20.934Z,51.90
2018-03-27T10:19:49.826Z,53.13
2018-03-27T10:22:19.276Z,64.23
2018-03-27T10:24:47.307Z,50.20
2018-03-27T10:27:15.673Z,55.23
2018-03-27T10:29:43.168Z,65.70
2018-03-27T10:32:10.658Z,53.73
2018-03-27T10:34:38.171Z,70.20
2018-03-27T10:37:05.663Z,70.90
2018-03-27T10:39:33.167Z,64.47
2018-03-27T10:42:00.659Z,63.30
2018-03-27T10:44:28.573Z,56.37
2018-03-27T10:46:56.071Z,66.23
2018-03-27T10:49:23.997Z,60.10
2018-03-27T10:51:51.519Z,68.17
2018-03-27T10:54:19.042Z,61.50
2018-03-27T10:56:46.560Z,62.70
2018-03-27T10:59:14.059Z,39.03
2018-03-27T11:01:41.579Z,64.23
2018-03-27T11:04:09.078Z,67.53
2018-03-27T11:06:36.582Z,66.90
2018-03-27T11:09:04.082Z,53.73
2018-03-27T11:11:31.599Z,70.53
2018-03-27T11:13:59.095Z,68.17
2018-03-27T11:16:26.645Z,59.67
2018-03-27T11:18:54.148Z,61.40
2018-03-27T11:21:21.656Z,66.73
2018-03-27T11:23:49.162Z,63.00
2018-03-27T11:26:17.058Z,59.97
2018-03-27T11:28:44.569Z,59.10
2018-03-27T11:31:12.463Z,61.43
2018-03-27T11:33:39.967Z,64.83
2018-03-27T11:36:07.480Z,46.90
2018-03-27T11:38:35.040Z,49.80
2018-03-27T11:41:02.561Z,48.07
2018-03-27T11:43:30.051Z,54.43
2018-03-27T11:45:57.569Z,57.63
2018-03-27T11:48:25.150Z,44.70
2018-03-27T11:50:52.608Z,55.00
2018-03-27T11:53:20.496Z,41.57
2018-03-27T11:55:48.003Z,51.30
2018-03-27T11:58:15.503Z,44.83
2018-03-27T12:00:43.019Z,36.93
2018-03-27T12:03:10.531Z,51.67
2018-03-27T12:05:38.080Z,52.17
2018-03-27T12:08:05.584Z,44.00
2018-03-27T12:10:33.084Z,40.23
2018-03-27T12:13:00.979Z,47.90
2018-03-27T12:15:28.488Z,45.37
2018-03-27T12:17:56.375Z,46.57
2018-03-27T12:20:23.887Z,45.53
2018-03-27T12:22:51.378Z,47.20
2018-03-27T12:25:19.277Z,43.83
2018-03-27T12:27:46.802Z,41.93
2018-03-27T12:30:14.689Z,43.77
2018-03-27T12:32:42.179Z,42.83
2018-03-27T12:35:09.693Z,32.47
2018-03-27T12:37:37.208Z,22.80
2018-03-27T12:40:04.767Z,23.07
2018-03-27T12:42:32.319Z,26.47
2018-03-27T12:44:59.823Z,31.73
2018-03-27T12:47:27.720Z,36.17
2018-03-27T12:49:55.224Z,32.50
2018-03-27T12:52:22.717Z,21.30
2018-03-27T12:54:50.264Z,24.43
2018-03-27T12:57:18.600Z,19.70
2018-03-27T12:59:46.112Z,25.63
2018-03-27T13:02:14.073Z,22.97
2018-03-27T13:04:41.608Z,17.57
2018-03-27T13:07:09.504Z,22.77
2018-03-27T13:09:37.068Z,18.90
2018-03-27T13:12:04.572Z,20.00
2018-03-27T13:14:32.073Z,21.20
2018-03-27T13:16:59.564Z,20.83
2018-03-27T13:19:27.083Z,22.83
2018-03-27T13:21:54.639Z,21.53
2018-03-27T13:24:22.192Z,21.33
2018-03-27T13:26:50.138Z,17.70
2018-03-27T13:29:17.632Z,18.40
2018-03-27T13:31:45.131Z,21.93
2018-03-27T13:34:12.635Z,21.53
2018-03-27T13:36:40.551Z,19.97
2018-03-27T13:39:08.068Z,23.40
2018-03-27T13:41:35.559Z,32.93
2018-03-27T13:44:03.050Z,29.10
2018-03-27T13:46:30.572Z,22.00
2018-03-27T13:48:58.106Z,21.43
2018-03-27T13:51:25.611Z,23.37
2018-03-27T13:53:53.128Z,20.47
2018-03-27T13:56:20.623Z,22.30
2018-03-27T13:58:48.138Z,24.30
2018-03-27T14:01:15.648Z,22.20
2018-03-27T14:03:43.159Z,20.83
2018-03-27T14:06:10.664Z,20.30
2018-03-27T14:08:38.174Z,20.63
2018-03-27T14:11:05.694Z,20.10
2018-03-27T14:13:33.598Z,26.43
2018-03-27T14:16:01.092Z,32.10
2018-03-27T14:18:28.604Z,28.40
2018-03-27T14:20:56.107Z,28.27
2018-03-27T14:23:23.616Z,32.23
2018-03-27T14:25:51.140Z,25.63
2018-03-27T14:28:19.046Z,30.07
2018-03-27T14:30:46.623Z,30.97
2018-03-27T14:33:14.119Z,28.53
2018-03-27T14:35:41.620Z,31.23
2018-03-27T14:38:09.155Z,26.63
2018-03-27T14:40:36.627Z,26.43
2018-03-27T14:43:04.120Z,31.17
2018-03-27T14:45:31.616Z,29.60
2018-03-27T14:47:59.524Z,25.20
2018-03-27T14:50:27.077Z,27.43
2018-03-27T14:52:54.594Z,30.00
2018-03-27T14:55:22.505Z,29.10
2018-03-27T14:57:50.022Z,28.63
2018-03-27T15:00:17.913Z,30.23
2018-03-27T15:02:45.431Z,28.57
2018-03-27T15:05:12.971Z,18.57
2018-03-27T15:07:40.463Z,28.87
2018-03-27T15:10:08.393Z,27.23
2018-03-27T15:12:35.947Z,29.10
2018-03-27T15:15:03.467Z,28.77
2018-03-27T15:17:30.966Z,30.80
2018-03-27T15:19:58.480Z,25.70
2018-03-27T15:22:25.994Z,27.67
2018-03-27T15:24:54.641Z,29.73
2018-03-27T15:27:22.213Z,28.90
2018-03-27T15:29:49.716Z,27.93
2018-03-27T15:32:17.639Z,29.93
2018-03-27T15:34:45.135Z,26.90
2018-03-27T15:37:13.042Z,29.30
2018-03-27T15:39:40.554Z,30.03
2018-03-27T15:42:08.059Z,24.83
2018-03-27T15:44:35.569Z,21.27
2018-03-27T15:47:03.106Z,29.17
2018-03-27T15:49:30.608Z,26.37
2018-03-27T15:51:58.506Z,22.47
2018-03-27T15:54:26.023Z,27.10
2018-03-27T15:56:53.931Z,25.27
2018-03-27T15:59:21.457Z,29.07
2018-03-27T16:01:49.362Z,26.73
2018-03-27T16:04:16.895Z,31.67
2018-03-27T16:06:44.447Z,31.47
2018-03-27T16:09:11.978Z,22.37
2018-03-27T16:11:39.479Z,20.87
2018-03-27T16:14:07.051Z,28.40
2018-03-27T16:16:34.656Z,20.93
2018-03-27T16:19:02.620Z,25.10
2018-03-27T16:21:30.560Z,28.20
2018-03-27T16:23:58.047Z,23.97
2018-03-27T16:26:25.539Z,31.73
2018-03-27T16:28:54.097Z,32.13
2018-03-27T16:31:27.047Z,27.93
2018-03-27T16:33:55.284Z,29.20
2018-03-27T16:36:22.774Z,28.40
2018-03-27T16:38:50.344Z,29.13
2018-03-27T16:41:17.832Z,31.53
2018-03-27T16:43:45.730Z,28.30
2018-03-27T16:46:13.226Z,29.83
2018-03-27T16:48:40.720Z,31.27
2018-03-27T16:51:08.614Z,29.53
2018-03-27T16:53:36.102Z,30.73
2018-03-27T16:56:03.648Z,25.30
2018-03-27T16:58:31.115Z,29.90
2018-03-27T17:00:58.661Z,25.33
2018-03-27T17:03:26.160Z,20.37
2018-03-27T17:05:54.092Z,21.17
2018-03-27T17:08:23.607Z,19.53
2018-03-27T17:10:51.111Z,20.20
2018-03-27T17:13:18.805Z,16.03
2018-03-27T17:15:46.351Z,20.93
2018-03-27T17:18:13.860Z,18.17
2018-03-27T17:20:41.535Z,17.63
2018-03-27T17:23:09.181Z,19.33
2018-03-27T17:25:36.792Z,19.40
2018-03-27T17:28:04.441Z,18.43
2018-03-27T17:30:31.992Z,18.63
2018-03-27T17:32:59.498Z,21.27
2018-03-27T17:35:27.018Z,15.00
2018-03-27T17:37:54.513Z,18.10
2018-03-27T17:40:22.015Z,17.23
2018-03-27T17:42:49.976Z,19.43
2018-03-27T17:45:17.894Z,19.80
2018-03-27T17:47:45.408Z,19.37
2018-03-27T17:50:12.953Z,22.53
2018-03-27T17:52:40.854Z,16.50
2018-03-27T17:55:08.352Z,22.33
2018-03-27T17:57:36.350Z,16.43
2018-03-27T18:00:04.487Z,21.33
2018-03-27T18:02:32.040Z,15.67
2018-03-27T18:04:59.571Z,21.23
2018-03-27T18:07:27.072Z,11.10
2018-03-27T18:09:56.594Z,20.13
2018-03-27T18:12:25.562Z,16.77
2018-03-27T18:14:54.814Z,17.80
2018-03-27T18:17:22.562Z,20.90
2018-03-27T18:19:50.452Z,18.83
2018-03-27T18:22:17.942Z,19.00
2018-03-27T18:24:45.497Z,17.60
2018-03-27T18:27:12.991Z,18.53
2018-03-27T18:29:40.906Z,17.00
2018-03-27T18:32:09.645Z,21.07
2018-03-27T18:34:37.193Z,22.70
2018-03-27T18:37:05.106Z,20.77
2018-03-27T18:39:32.596Z,19.53
2018-03-27T18:42:00.104Z,24.07
2018-03-27T18:44:27.611Z,20.83
2018-03-27T18:46:55.101Z,26.07
2018-03-27T18:49:23.042Z,26.50
2018-03-27T18:51:51.829Z,20.23
2018-03-27T18:54:23.052Z,24.97
2018-03-27T18:56:50.666Z,24.80
2018-03-27T18:59:18.188Z,26.27
2018-03-27T19:01:45.684Z,20.17
2018-03-27T19:04:13.194Z,24.33
2018-03-27T19:06:40.682Z,25.33
2018-03-27T19:09:08.804Z,22.00
2018-03-27T19:11:36.311Z,25.33
2018-03-27T19:14:04.212Z,23.70
2018-03-27T19:16:31.843Z,26.97
2018-03-27T19:18:59.368Z,23.87
2018-03-27T19:21:26.889Z,27.30
2018-03-27T19:23:54.392Z,26.70
2018-03-27T19:26:22.799Z,26.10
2018-03-27T19:28:50.798Z,30.03
2018-03-27T19:31:18.283Z,29.83
2018-03-27T19:33:45.862Z,28.27
2018-03-27T19:36:13.363Z,26.53
2018-03-27T19:38:40.872Z,30.83
2018-03-27T19:41:08.362Z,31.33
2018-03-27T19:43:35.879Z,28.63
2018-03-27T19:46:03.387Z,31.63
2018-03-27T19:48:30.907Z,32.97
2018-03-27T19:50:58.427Z,32.33
2018-03-27T19:53:26.908Z,27.83
2018-03-27T19:55:54.419Z,31.87
2018-03-27T19:58:22.331Z,33.80
2018-03-27T20:00:49.860Z,33.27
2018-03-27T20:03:17.369Z,34.07
2018-03-27T20:05:44.864Z,35.07
2018-03-27T20:08:13.879Z,35.80
2018-03-27T20:10:41.381Z,32.77
2018-03-27T20:13:08.908Z,34.13
2018-03-27T20:15:41.704Z,37.47
2018-03-27T20:20:57.244Z,37.30
2018-03-27T20:23:25.147Z,36.23
2018-03-27T20:25:52.655Z,41.57
2018-03-27T20:28:20.192Z,37.27
2018-03-27T20:30:47.738Z,38.50
2018-03-27T20:33:15.229Z,40.23
2018-03-27T20:35:42.744Z,40.90
2018-03-27T20:38:10.289Z,41.33
2018-03-27T20:40:38.712Z,41.87
2018-03-27T20:43:06.223Z,41.47
2018-03-27T20:45:33.720Z,46.27
2018-03-27T20:48:01.780Z,43.77
2018-03-27T20:50:30.426Z,47.70
2018-03-27T20:52:59.028Z,43.30
2018-03-27T20:55:26.531Z,47.43
2018-03-27T20:57:54.039Z,48.63
2018-03-27T21:00:21.542Z,50.17
2018-03-27T21:02:49.040Z,50.97
2018-03-27T21:07:58.619Z,50.07
2018-03-27T21:10:26.128Z,49.33
2018-03-27T21:12:53.738Z,49.57
2018-03-27T21:15:21.184Z,49.87
2018-03-27T21:17:48.671Z,55.53
2018-03-27T21:20:16.253Z,51.80
2018-03-27T21:22:43.752Z,51.03
2018-03-27T21:25:11.261Z,48.67
2018-03-27T21:27:38.840Z,51.40
2018-03-27T21:30:06.817Z,58.20
2018-03-27T21:32:34.391Z,49.37
2018-03-27T21:35:02.294Z,53.00
2018-03-27T21:37:30.000Z,53.20
2018-03-27T21:39:57.701Z,55.70
2018-03-27T21:42:25.222Z,52.40
2018-03-27T21:44:52.951Z,55.10
2018-03-27T21:47:20.508Z,56.77
2018-03-27T21:49:48.119Z,54.30
2018-03-27T21:52:15.607Z,54.07
2018-03-27T21:54:46.452Z,55.10
2018-03-27T21:57:13.987Z,56.20
2018-03-27T21:59:52.694Z,55.47
2018-03-27T22:02:20.764Z,57.53
2018-03-27T22:04:48.328Z,57.50
2018-03-27T22:07:15.860Z,51.47
2018-03-27T22:09:43.382Z,54.17
2018-03-27T22:12:10.891Z,56.73
2018-03-27T22:14:38.664Z,57.70
2018-03-27T22:17:09.790Z,53.33
2018-03-27T22:19:37.303Z,55.47
2018-03-27T22:22:04.835Z,48.30
2018-03-27T22:24:32.332Z,55.00
2018-03-27T22:26:59.870Z,48.90
2018-03-27T22:29:27.401Z,52.63
2018-03-27T22:31:55.560Z,55.40
2018-03-27T22:34:23.072Z,52.93
2018-03-27T22:36:50.599Z,51.30
2018-03-27T22:39:18.112Z,52.47
2018-03-27T22:41:45.619Z,46.67
2018-03-27T22:44:13.273Z,51.40
2018-03-27T22:46:40.958Z,50.93
2018-03-27T22:49:08.613Z,45.23
2018-03-27T22:51:37.778Z,51.30
2018-03-27T22:54:06.426Z,49.67
2018-03-27T22:56:34.324Z,45.63
2018-03-27T22:59:02.102Z,41.90
2018-03-27T23:01:29.916Z,39.40
2018-03-27T23:03:57.441Z,34.93
2018-03-27T23:06:25.207Z,36.43
2018-03-27T23:08:52.743Z,41.07
2018-03-27T23:11:20.264Z,34.70
2018-03-27T23:13:48.165Z,33.73
2018-03-27T23:16:15.875Z,33.23
2018-03-27T23:18:43.409Z,32.90
2018-03-27T23:21:11.063Z,29.53
2018-03-27T23:23:39.687Z,27.97
2018-03-27T23:26:07.230Z,30.57
2018-03-27T23:28:35.300Z,22.47
2018-03-27T23:31:02.820Z,24.33
2018-03-27T23:33:30.344Z,24.03
2018-03-27T23:35:58.245Z,26.40
2018-03-27T23:38:25.815Z,24.23
2018-03-27T23:40:53.359Z,22.60
2018-03-27T23:43:20.864Z,19.70
2018-03-27T23:45:48.351Z,22.40
2018-03-27T23:48:16.252Z,22.47
2018-03-27T23:50:43.743Z,23.83
2018-03-27T23:53:11.285Z,21.70
2018-03-27T23:55:38.760Z,21.33
2018-03-27T23:58:06.276Z,18.50
